Time;durP1;ratioP1;P1;durP2;ratioP2;P2;SDS_P1;SDS_P2;PMS_P1;PMS_P2;Temp;Humidity;BMP_temperature;BMP_pressure;BME280_temperature;BME280_humidity;BME280_pressure;Samples;Min_cycle;Max_cycle;Signal;HPM_P1;HPM_P2
2022/01/06 08:25:07;;;;;;;15.47;4.07;;;0.40;99.90;;;;;;5091499;28;20459;-64
2022/01/06 08:27:33;;;;;;;24.43;4.43;;;0.40;99.90;;;;;;5091230;28;20052;-62
2022/01/06 08:30:00;;;;;;;26.60;4.95;;;0.40;99.90;;;;;;5091140;28;20114;-63
2022/01/06 08:32:25;;;;;;;23.57;4.87;;;0.40;99.90;;;;;;5091145;28;20411;-64
2022/01/06 08:34:51;;;;;;;21.35;4.43;;;0.50;99.90;;;;;;5091176;28;20069;-63
2022/01/06 08:37:17;;;;;;;18.42;4.25;;;0.50;99.90;;;;;;5090817;28;20044;-63
2022/01/06 08:39:43;;;;;;;30.27;5.23;;;0.50;99.90;;;;;;5080080;28;20036;-61
2022/01/06 08:42:11;;;;;;;31.25;5.88;;;0.50;99.90;;;;;;5081539;28;20105;-62
2022/01/06 08:44:39;;;;;;;26.73;4.53;;;0.60;99.90;;;;;;5079275;28;20396;-63
2022/01/06 08:47:06;;;;;;;22.83;4.70;;;0.60;99.90;;;;;;5072509;28;20455;-63
2022/01/06 08:49:33;;;;;;;19.98;4.75;;;0.60;99.90;;;;;;5070642;28;20515;-60
2022/01/06 08:51:58;;;;;;;;;;;0.80;99.90;;;;;;5070900;28;20051;-61
2022/01/06 08:54:24;;;;;;;25.03;4.80;;;0.90;99.90;;;;;;5077865;28;19921;-61
2022/01/06 08:56:49;;;;;;;24.73;5.00;;;0.90;99.90;;;;;;5087288;28;20105;-61
2022/01/06 08:59:15;;;;;;;32.85;5.65;;;1.00;99.90;;;;;;5079142;28;20051;-61
2022/01/06 09:01:41;;;;;;;28.13;5.32;;;1.10;99.90;;;;;;5076501;28;20385;-60
2022/01/06 09:04:07;;;;;;;27.25;6.30;;;1.20;99.90;;;;;;5070170;28;20131;-61
2022/01/06 09:06:32;;;;;;;29.92;6.13;;;1.30;99.90;;;;;;5070759;28;20088;-60
2022/01/06 09:08:58;;;;;;;30.25;5.78;;;1.30;99.90;;;;;;5080305;28;20051;-61
2022/01/06 09:11:24;;;;;;;21.42;4.82;;;1.40;99.90;;;;;;5079167;28;20366;-60
2022/01/06 09:13:49;;;;;;;21.38;4.35;;;1.50;99.90;;;;;;5078360;28;20040;-61
2022/01/06 09:16:15;;;;;;;28.75;4.93;;;1.50;99.90;;;;;;5080448;28;20041;-60
2022/01/06 09:18:41;;;;;;;30.05;4.50;;;1.60;99.90;;;;;;5079686;28;20037;-61
2022/01/06 09:21:08;;;;;;;24.70;3.92;;;1.60;99.90;;;;;;5078755;28;20083;-62
2022/01/06 09:23:36;;;;;;;23.48;3.88;;;1.70;99.90;;;;;;5078173;28;20052;-62
2022/01/06 09:26:02;;;;;;;22.75;4.10;;;1.70;99.90;;;;;;5079327;28;20052;-59
2022/01/06 09:28:27;;;;;;;24.08;3.95;;;1.80;99.90;;;;;;5080268;28;20071;-62
2022/01/06 09:30:55;;;;;;;20.50;4.13;;;1.80;99.90;;;;;;5077860;28;20044;-62
2022/01/06 09:33:22;;;;;;;31.50;4.68;;;1.90;99.90;;;;;;5068476;28;20061;-62
2022/01/06 09:35:52;;;;;;;21.38;4.80;;;4.90;99.90;;;;;;5058459;28;20513;-62
2022/01/06 09:38:18;;;;;;;21.00;3.88;;;2.00;99.90;;;;;;5066083;28;20052;-62
2022/01/06 09:40:44;;;;;;;24.95;4.10;;;2.00;99.90;;;;;;5067498;28;20423;-62
2022/01/06 09:43:12;;;;;;;25.55;5.50;;;2.10;99.90;;;;;;5057813;28;20049;-62
2022/01/06 09:45:39;;;;;;;25.63;4.30;;;2.20;99.90;;;;;;5057748;28;20480;-62
2022/01/06 09:48:06;;;;;;;27.25;4.10;;;2.10;99.90;;;;;;5065534;28;20040;-63
2022/01/06 09:50:32;;;;;;;23.40;4.43;;;2.30;99.90;;;;;;5065222;28;20076;-62
2022/01/06 09:52:58;;;;;;;;;;;2.60;99.90;;;;;;5056723;28;20071;-62
2022/01/06 09:55:23;;;;;;;24.40;4.22;;;2.40;99.90;;;;;;5055350;28;19946;-62
2022/01/06 09:58:38;;;;;;;27.75;4.13;;;2.40;99.90;;;;;;5063330;28;20511;-65
2022/01/06 10:01:04;;;;;;;26.58;4.28;;;2.60;99.90;;;;;;5053826;28;20460;-62
2022/01/06 10:03:41;;;;;;;22.30;4.10;;;2.60;99.90;;;;;;5054441;28;20132;-62
2022/01/06 10:06:14;;;;;;;21.65;3.95;;;2.60;99.90;;;;;;5054691;28;20048;-64
2022/01/06 10:08:41;;;;;;;19.52;4.10;;;2.70;99.90;;;;;;5053746;28;20053;-63
2022/01/06 10:11:10;;;;;;;25.42;4.25;;;2.70;99.90;;;;;;5055174;28;20131;-64
2022/01/06 10:13:37;;;;;;;23.13;4.50;;;2.80;99.90;;;;;;5054718;28;20110;-63
2022/01/06 10:16:12;;;;;;;;;;;2.90;99.90;;;;;;5055114;28;20060;-62
2022/01/06 10:18:39;;;;;;;28.77;4.43;;;3.10;99.90;;;;;;5055457;28;19974;-62
2022/01/06 10:21:14;;;;;;;24.35;4.35;;;3.00;99.90;;;;;;5055216;28;20128;-62
2022/01/06 10:23:40;;;;;;;17.40;4.00;;;;;;;;;;5055263;28;20475;-62
2022/01/06 10:26:13;;;;;;;23.55;3.97;;;3.10;99.90;;;;;;5055379;28;20061;-62
2022/01/06 10:28:39;;;;;;;17.05;3.53;;;3.10;99.90;;;;;;5055450;28;20404;-62
2022/01/06 10:31:09;;;;;;;20.52;3.72;;;3.40;99.90;;;;;;5055310;28;20091;-62
2022/01/06 10:33:39;;;;;;;17.30;3.75;;;3.20;99.90;;;;;;5040014;28;20037;-62
2022/01/06 10:36:07;;;;;;;17.10;3.60;;;3.30;99.90;;;;;;5035249;28;20440;-62
2022/01/06 10:38:33;;;;;;;29.70;5.60;;;3.40;99.90;;;;;;5035804;28;20053;-62
2022/01/06 10:41:11;;;;;;;21.33;3.60;;;3.50;99.90;;;;;;5038711;28;20507;-64
2022/01/06 10:43:41;;;;;;;19.55;3.95;;;3.60;99.90;;;;;;5043053;28;20485;-62
2022/01/06 10:46:07;;;;;;;19.83;3.78;;;3.60;99.90;;;;;;5038549;28;20041;-63
2022/01/06 10:48:33;;;;;;;;;;;3.80;99.90;;;;;;5044999;28;20072;-62
2022/01/06 10:51:01;;;;;;;17.38;2.88;;;4.00;99.90;;;;;;5045190;28;20372;-62
2022/01/06 10:53:27;;;;;;;20.45;3.40;;;3.90;99.90;;;;;;5043652;28;20049;-63
2022/01/06 10:55:53;;;;;;;18.55;3.47;;;3.90;99.90;;;;;;5044105;28;20392;-62
2022/01/06 10:58:23;;;;;;;18.38;3.15;;;4.00;99.90;;;;;;5044203;28;20041;-63
2022/01/06 11:00:57;;;;;;;23.08;3.60;;;4.00;99.90;;;;;;5050248;28;20075;-63
2022/01/06 11:03:25;;;;;;;19.95;3.30;;;4.10;99.90;;;;;;5044108;28;20047;-62
2022/01/06 11:05:53;;;;;;;21.85;3.20;;;4.10;99.90;;;;;;5044205;28;20047;-62
2022/01/06 11:08:24;;;;;;;16.73;3.58;;;4.20;99.90;;;;;;5044092;28;20053;-62
2022/01/06 11:13:35;;;;;;;21.13;3.65;;;4.30;99.90;;;;;;5034023;28;20478;-62
2022/01/06 11:16:02;;;;;;;18.95;3.28;;;4.30;99.90;;;;;;5043906;28;20505;-62
2022/01/06 11:18:28;;;;;;;24.20;4.00;;;4.30;99.90;;;;;;5054587;28;20056;-62
2022/01/06 11:21:13;;;;;;;;;;;4.40;99.90;;;;;;5055451;28;20640;-63
2022/01/06 11:23:39;;;;;;;16.13;2.90;;;4.50;99.90;;;;;;5054135;28;19943;-63
2022/01/06 11:26:13;;;;;;;15.95;3.17;;;4.50;99.90;;;;;;5054314;28;20059;-61
2022/01/06 11:28:41;;;;;;;20.17;3.20;;;4.50;99.90;;;;;;5054245;28;20059;-63
2022/01/06 11:31:17;;;;;;;35.28;18.25;;;4.80;99.90;;;;;;5053950;28;20497;-64
2022/01/06 11:33:44;;;;;;;;;;;4.60;99.90;;;;;;5051222;28;20092;-62
2022/01/06 11:36:26;;;;;;;16.25;2.42;;;4.70;99.90;;;;;;5039455;28;19927;-63
2022/01/06 11:38:53;;;;;;;18.23;2.60;;;4.60;99.90;;;;;;5042321;28;20052;-62
2022/01/06 11:41:20;;;;;;;17.85;2.72;;;4.70;99.90;;;;;;5054421;28;20132;-62
2022/01/06 11:43:47;;;;;;;16.08;2.90;;;4.70;99.90;;;;;;5050297;28;20366;-62
2022/01/06 11:46:14;;;;;;;12.65;2.80;;;4.70;99.90;;;;;;5051833;28;20068;-62
2022/01/06 11:48:53;;;;;;;13.23;2.35;;;4.80;99.90;;;;;;5054041;28;20045;-62
2022/01/06 11:51:37;;;;;;;20.98;5.65;;;4.80;99.90;;;;;;5053916;28;20053;-63
2022/01/06 11:54:19;;;;;;;13.90;2.50;;;4.90;99.90;;;;;;5053944;28;20166;-62
2022/01/06 11:56:52;;;;;;;12.35;2.50;;;4.90;99.90;;;;;;5052690;28;20049;-62
2022/01/06 11:59:32;;;;;;;20.35;2.60;;;4.90;99.90;;;;;;5053446;28;20063;-63
2022/01/06 12:01:58;;;;;;;16.55;2.63;;;4.90;99.90;;;;;;5054377;28;20044;-63
2022/01/06 12:04:26;;;;;;;16.60;2.90;;;4.90;99.90;;;;;;5052926;28;20041;-63
2022/01/06 12:07:06;;;;;;;16.20;2.60;;;4.80;99.90;;;;;;5053215;28;20424;-63
2022/01/06 12:09:31;;;;;;;14.27;2.80;;;5.00;99.90;;;;;;5053660;28;20055;-63
2022/01/06 12:12:10;;;;;;;12.60;2.65;;;4.80;99.90;;;;;;5053489;28;20400;-63
2022/01/06 12:14:35;;;;;;;13.45;2.67;;;4.80;99.90;;;;;;5053352;28;20055;-63
2022/01/06 12:17:10;;;;;;;12.60;2.78;;;5.00;99.90;;;;;;5050569;28;20461;-63
2022/01/06 12:19:37;;;;;;;12.95;2.30;;;4.90;99.90;;;;;;5040345;28;20046;-63
2022/01/06 12:22:09;;;;;;;12.65;2.67;;;4.90;99.90;;;;;;5032274;28;20041;-63
2022/01/06 12:24:34;;;;;;;15.07;2.30;;;4.80;99.90;;;;;;5046202;28;20064;-63
2022/01/06 12:27:04;;;;;;;12.23;2.50;;;4.80;99.90;;;;;;5053472;28;20404;-62
2022/01/06 12:29:34;;;;;;;20.83;2.72;;;4.90;99.90;;;;;;5068943;28;20044;-63
2022/01/06 12:32:07;;;;;;;11.00;2.50;;;5.00;99.90;;;;;;5053385;28;20053;-62
2022/01/06 12:34:33;;;;;;;13.90;2.53;;;5.00;99.90;;;;;;5053531;28;20473;-62
2022/01/06 12:36:59;;;;;;;16.50;2.35;;;5.10;99.90;;;;;;5038383;28;20132;-62
2022/01/06 12:39:24;;;;;;;11.40;2.28;;;5.10;99.90;;;;;;5033707;28;20042;-62
2022/01/06 12:41:52;;;;;;;14.88;2.45;;;5.20;99.90;;;;;;5033971;28;20136;-62
2022/01/06 12:44:18;;;;;;;12.98;3.10;;;5.30;99.90;;;;;;5033323;28;20121;-63
2022/01/06 12:46:45;;;;;;;14.77;3.03;;;5.30;99.90;;;;;;5033524;28;20041;-62
2022/01/06 12:49:12;;;;;;;15.43;2.47;;;5.40;99.90;;;;;;5033332;28;20104;-62
2022/01/06 12:51:44;;;;;;;17.08;3.13;;;5.50;99.90;;;;;;5032359;28;20056;-63
2022/01/06 12:54:13;;;;;;;16.42;2.53;;;5.60;99.90;;;;;;5033270;28;20048;-64
2022/01/06 12:57:02;;;;;;;15.98;2.35;;;5.50;99.90;;;;;;5032245;28;20128;-62
2022/01/06 12:59:37;;;;;;;16.25;2.55;;;5.60;99.90;;;;;;5033599;28;20049;-63
2022/01/06 13:02:09;;;;;;;17.85;2.33;;;5.60;99.90;;;;;;5033023;28;20045;-62
2022/01/06 13:04:38;;;;;;;13.63;2.20;;;5.80;99.90;;;;;;5033075;28;20041;-63
2022/01/06 13:07:12;;;;;;;12.32;2.22;;;5.70;99.90;;;;;;5033322;28;20045;-62
2022/01/06 13:09:40;;;;;;;10.50;2.30;;;5.60;99.90;;;;;;5033344;28;20053;-63
2022/01/06 13:12:23;;;;;;;14.65;2.63;;;5.60;99.90;;;;;;5040020;28;20515;-62
2022/01/06 13:14:52;;;;;;;10.25;1.80;;;5.60;99.90;;;;;;5056673;28;20118;-62
2022/01/06 13:17:19;;;;;;;13.95;2.15;;;5.60;99.90;;;;;;5056570;28;20145;-63
2022/01/06 13:20:15;;;;;;;30.13;13.73;;;5.60;99.90;;;;;;5056908;28;20041;-62
2022/01/06 13:25:26;;;;;;;12.23;2.60;;;5.70;99.90;;;;;;5056901;28;20064;-62
2022/01/06 13:27:57;;;;;;;13.30;3.63;;;5.60;99.90;;;;;;5056567;28;20098;-62
2022/01/06 13:30:34;;;;;;;13.05;3.30;;;5.60;99.90;;;;;;5057141;28;20056;-62
2022/01/06 13:33:01;;;;;;;12.32;2.80;;;5.50;99.90;;;;;;5073209;28;20060;-63
2022/01/06 13:35:27;;;;;;;15.77;2.90;;;5.50;99.90;;;;;;5056362;28;20416;-62
2022/01/06 13:37:53;;;;;;;14.85;3.28;;;5.50;99.90;;;;;;5056475;28;20060;-63
2022/01/06 13:40:18;;;;;;;14.30;2.95;;;5.40;99.90;;;;;;5056144;28;20107;-62
2022/01/06 13:42:45;;;;;;;19.35;3.53;;;5.40;99.90;;;;;;5055314;28;20052;-61
2022/01/06 13:45:25;;;;;;;15.63;3.15;;;5.40;99.90;;;;;;5056234;28;20051;-62
2022/01/06 13:53:31;;;;;;;16.00;3.45;;;5.20;99.90;;;;;;5056787;28;20049;-63
2022/01/06 13:56:05;;;;;;;13.73;2.97;;;5.20;99.90;;;;;;5055980;28;20056;-63
2022/01/06 13:58:32;;;;;;;19.60;3.55;;;5.20;99.90;;;;;;5056086;28;20057;-62
2022/01/06 14:00:57;;;;;;;;;;;5.20;99.90;;;;;;5056433;28;20049;-64
2022/01/06 14:03:23;;;;;;;30.67;12.73;;;5.20;99.90;;;;;;5055854;28;19975;-63
2022/01/06 14:05:50;;;;;;;22.48;6.47;;;5.10;99.90;;;;;;5055916;28;20053;-63
2022/01/06 14:08:15;;;;;;;15.95;2.88;;;5.10;99.90;;;;;;5055536;28;20045;-63
2022/01/06 14:10:41;;;;;;;17.90;2.85;;;;;;;;;;5055747;28;20041;-63
2022/01/06 14:13:07;;;;;;;;;;;5.00;99.90;;;;;;5051850;28;20121;-64
2022/01/06 14:15:33;;;;;;;20.27;3.22;;;5.00;99.90;;;;;;5035720;28;20020;-63
2022/01/06 14:17:59;;;;;;;13.52;3.03;;;5.00;99.90;;;;;;5035796;28;20057;-63
2022/01/06 14:20:25;;;;;;;11.38;3.17;;;5.00;99.90;;;;;;5037094;28;20049;-63
2022/01/06 14:22:50;;;;;;;14.75;3.22;;;5.00;99.90;;;;;;5043455;28;20053;-63
2022/01/06 14:25:16;;;;;;;16.92;2.83;;;4.90;99.90;;;;;;5035485;28;20494;-65
2022/01/06 14:27:42;;;;;;;14.13;2.83;;;5.00;99.90;;;;;;5035345;28;20146;-64
2022/01/06 14:30:08;;;;;;;15.73;2.63;;;4.90;99.90;;;;;;5035425;28;20057;-64
2022/01/06 14:32:36;;;;;;;15.70;2.35;;;5.00;99.90;;;;;;5035346;28;20065;-63
2022/01/06 14:35:02;;;;;;;14.68;2.60;;;5.00;99.90;;;;;;5035213;28;20048;-63
2022/01/06 14:37:27;;;;;;;11.48;2.33;;;5.00;99.90;;;;;;5037469;28;20052;-63
2022/01/06 14:39:53;;;;;;;13.02;2.25;;;5.00;99.90;;;;;;5042495;28;20108;-64
2022/01/06 14:42:19;;;;;;;14.00;2.85;;;5.00;99.90;;;;;;5046548;28;20048;-63
2022/01/06 14:44:44;;;;;;;15.55;3.17;;;5.00;99.90;;;;;;5050512;28;20113;-64
2022/01/06 14:47:10;;;;;;;10.93;3.35;;;5.00;99.90;;;;;;5044612;28;20046;-64
2022/01/06 14:49:36;;;;;;;13.05;3.40;;;5.00;99.90;;;;;;5043425;28;20048;-65
2022/01/06 14:52:02;;;;;;;14.77;2.92;;;5.00;99.90;;;;;;5045324;28;20041;-64
2022/01/06 14:54:27;;;;;;;16.30;3.50;;;5.00;99.90;;;;;;5044345;28;20034;-64
2022/01/06 14:56:54;;;;;;;14.98;2.97;;;4.90;99.90;;;;;;5044445;28;20049;-65
2022/01/06 14:59:21;;;;;;;10.00;3.13;;;4.90;99.90;;;;;;5044225;28;20052;-62
2022/01/06 15:01:48;;;;;;;12.95;3.20;;;4.90;99.90;;;;;;5044116;28;20055;-64
2022/01/06 15:04:14;;;;;;;12.10;3.35;;;4.90;99.90;;;;;;5045976;28;20117;-62
2022/01/06 15:06:40;;;;;;;17.75;5.50;;;4.90;99.90;;;;;;5042681;28;20073;-62
2022/01/06 15:09:06;;;;;;;39.15;24.60;;;4.90;99.90;;;;;;5044742;28;20652;-63
2022/01/06 15:11:32;;;;;;;83.00;44.42;;;4.90;99.90;;;;;;5034421;28;20097;-62
2022/01/06 15:13:57;;;;;;;20.48;6.30;;;4.90;99.90;;;;;;5034411;28;20045;-63
2022/01/06 15:16:23;;;;;;;16.85;4.03;;;4.80;99.90;;;;;;5034436;28;20046;-63
2022/01/06 15:18:49;;;;;;;15.57;6.05;;;4.80;99.90;;;;;;5034912;28;20049;-63
2022/01/06 15:21:14;;;;;;;15.00;7.05;;;4.80;99.90;;;;;;5034683;28;20131;-63
2022/01/06 15:23:41;;;;;;;22.73;9.02;;;4.70;99.90;;;;;;5052082;28;20041;-63
2022/01/06 15:26:06;;;;;;;16.58;6.32;;;4.70;99.90;;;;;;5045993;28;20061;-63
2022/01/06 15:28:32;;;;;;;14.25;3.42;;;4.60;99.90;;;;;;5051087;28;20060;-63
2022/01/06 15:30:58;;;;;;;12.27;3.83;;;4.60;99.90;;;;;;5051039;28;20081;-62
2022/01/06 15:33:23;;;;;;;13.93;3.10;;;4.50;99.90;;;;;;5052934;28;20049;-63
2022/01/06 15:35:53;;;;;;;12.00;4.05;;;4.50;99.90;;;;;;5053887;28;20511;-63
2022/01/06 15:38:19;;;;;;;12.60;3.72;;;4.50;99.90;;;;;;5053959;28;20409;-63
2022/01/06 15:40:46;;;;;;;11.85;2.45;;;4.40;99.90;;;;;;5053801;28;20124;-64
2022/01/06 15:43:13;;;;;;;;;;;4.40;99.90;;;;;;5054233;28;20045;-63
2022/01/06 15:45:38;;;;;;;9.77;2.40;;;4.30;99.90;;;;;;5052649;28;20431;-62
2022/01/06 15:48:04;;;;;;;9.75;2.63;;;4.30;99.90;;;;;;5053820;28;20087;-62
2022/01/06 15:50:31;;;;;;;8.32;2.72;;;4.30;99.90;;;;;;5052810;28;20047;-62
2022/01/06 15:52:57;;;;;;;13.07;6.03;;;4.30;99.90;;;;;;5053425;28;20102;-62
2022/01/06 15:55:25;;;;;;;13.73;3.45;;;4.30;99.90;;;;;;5053675;28;20049;-62
2022/01/06 15:57:52;;;;;;;12.15;3.92;;;4.30;99.90;;;;;;5053608;28;20091;-62
2022/01/06 16:05:33;;;;;;;13.18;3.25;;;4.40;99.90;;;;;;5053532;28;20147;-62
2022/01/06 16:07:59;;;;;;;12.73;3.03;;;4.40;99.90;;;;;;5054361;28;20420;-63
2022/01/06 16:10:25;;;;;;;11.48;3.38;;;4.40;99.90;;;;;;5053312;28;20553;-63
2022/01/06 16:12:51;;;;;;;10.73;2.67;;;4.40;99.90;;;;;;5044180;28;20045;-62
2022/01/06 16:15:18;;;;;;;9.05;2.42;;;4.40;99.90;;;;;;5034123;28;20497;-64
2022/01/06 16:17:47;;;;;;;13.18;3.40;;;4.30;99.90;;;;;;5033460;28;20053;-63
2022/01/06 16:20:13;;;;;;;15.70;4.05;;;4.40;99.90;;;;;;5032448;28;20580;-62
2022/01/06 16:22:39;;;;;;;16.35;5.30;;;4.40;99.90;;;;;;5033447;28;20045;-63
2022/01/06 16:25:05;;;;;;;12.30;5.20;;;4.50;99.90;;;;;;5033335;28;20409;-62
2022/01/06 16:27:32;;;;;;;;;;;4.40;99.90;;;;;;5032762;28;20433;-62
2022/01/06 16:30:16;;;;;;;15.63;3.47;;;4.40;99.90;;;;;;5033438;28;19979;-62
2022/01/06 16:32:42;;;;;;;10.70;3.15;;;4.40;99.90;;;;;;5033398;28;20046;-63
2022/01/06 16:35:08;;;;;;;10.88;5.25;;;4.30;99.90;;;;;;5032377;28;20053;-63
2022/01/06 16:37:35;;;;;;;15.75;3.40;;;4.30;99.90;;;;;;5033220;28;20132;-62
2022/01/06 16:40:03;;;;;;;8.80;3.33;;;4.30;99.90;;;;;;5032979;28;20528;-63
2022/01/06 16:42:29;;;;;;;13.70;3.30;;;4.30;99.90;;;;;;5033321;28;20484;-63
2022/01/06 16:44:56;;;;;;;10.90;3.20;;;4.30;99.90;;;;;;5034561;28;20520;-63
2022/01/06 16:47:21;;;;;;;;;;;4.30;99.90;;;;;;5056387;28;20084;-63
2022/01/06 16:49:47;;;;;;;11.48;3.95;;;4.20;99.90;;;;;;5057131;28;19967;-63
2022/01/06 16:52:12;;;;;;;13.75;3.45;;;4.20;99.90;;;;;;5057657;28;20045;-62
2022/01/06 16:54:39;;;;;;;15.88;5.30;;;4.20;99.90;;;;;;5057021;28;20045;-62
2022/01/06 16:57:05;;;;;;;14.43;4.57;;;4.30;99.90;;;;;;5057184;28;20393;-61
2022/01/06 16:59:31;;;;;;;19.50;4.80;;;4.20;99.90;;;;;;5056189;28;20121;-61
2022/01/06 17:01:58;;;;;;;12.75;3.88;;;4.20;99.90;;;;;;5057118;28;20060;-62
2022/01/06 17:04:24;;;;;;;15.77;4.95;;;4.20;99.90;;;;;;5056918;28;20041;-62
2022/01/06 17:06:50;;;;;;;10.02;3.83;;;4.20;99.90;;;;;;5056335;28;20053;-62
2022/01/06 17:09:16;;;;;;;20.42;4.70;;;4.20;99.90;;;;;;5057556;28;20068;-62
2022/01/06 17:11:42;;;;;;;16.90;4.50;;;4.10;99.90;;;;;;5056662;28;20119;-61
2022/01/06 17:14:08;;;;;;;18.90;3.75;;;4.10;99.90;;;;;;5036931;28;20355;-61
2022/01/06 17:16:34;;;;;;;11.98;3.35;;;4.10;99.90;;;;;;5036253;28;20132;-61
2022/01/06 17:19:00;;;;;;;20.05;6.85;;;4.10;99.90;;;;;;5036943;28;20088;-61
2022/01/06 17:21:25;;;;;;;11.93;5.20;;;4.00;99.90;;;;;;5036826;28;20045;-62
2022/01/06 17:23:52;;;;;;;11.63;4.10;;;4.00;99.90;;;;;;5036577;28;20057;-62
2022/01/06 17:26:20;;;;;;;14.50;3.40;;;4.00;99.90;;;;;;5036616;28;20049;-62
2022/01/06 17:28:46;;;;;;;15.10;3.78;;;3.90;99.90;;;;;;5035686;28;20045;-62
2022/01/06 17:31:12;;;;;;;13.23;2.88;;;4.00;99.90;;;;;;5035952;28;20085;-62
2022/01/06 17:33:40;;;;;;;14.60;4.20;;;3.90;99.90;;;;;;5035623;28;20077;-61
2022/01/06 17:36:07;;;;;;;14.55;4.80;;;3.80;99.90;;;;;;5035033;28;20061;-63
2022/01/06 17:38:33;;;;;;;15.18;4.05;;;3.80;99.90;;;;;;5036483;28;20132;-62
2022/01/06 17:40:59;;;;;;;14.27;4.10;;;3.80;99.90;;;;;;5036905;28;20046;-62
2022/01/06 17:43:26;;;;;;;17.98;4.63;;;3.80;99.90;;;;;;5036071;28;20072;-62
2022/01/06 17:45:53;;;;;;;13.55;3.85;;;3.70;99.90;;;;;;5036986;28;20142;-60
2022/01/06 17:48:19;;;;;;;10.52;3.05;;;3.70;99.90;;;;;;5036328;28;20052;-62
2022/01/06 17:50:45;;;;;;;12.68;2.97;;;3.70;99.90;;;;;;5036202;28;20041;-61
2022/01/06 17:53:10;;;;;;;14.02;2.78;;;3.70;99.90;;;;;;5036427;28;20500;-62
2022/01/06 17:55:37;;;;;;;11.38;3.13;;;3.70;99.90;;;;;;5035728;28;20045;-63
2022/01/06 17:58:04;;;;;;;15.93;3.30;;;3.60;99.90;;;;;;5035194;28;20045;-61
2022/01/06 18:00:29;;;;;;;12.05;3.10;;;3.60;99.90;;;;;;5034906;28;20046;-61
2022/01/06 18:02:55;;;;;;;13.32;3.60;;;3.60;99.90;;;;;;5036526;28;20072;-61
2022/01/06 18:05:23;;;;;;;12.63;5.30;;;3.50;99.90;;;;;;5035891;28;20045;-61
2022/01/06 18:08:01;;;;;;;12.38;4.88;;;3.60;99.90;;;;;;5034764;28;20095;-62
2022/01/06 18:13:13;;;;;;;29.27;13.95;;;3.60;99.90;;;;;;5035942;28;20049;-61
2022/01/06 18:15:39;;;;;;;21.20;8.40;;;3.50;99.90;;;;;;5035800;28;20111;-61
2022/01/06 18:18:05;;;;;;;18.55;5.93;;;3.50;99.90;;;;;;5036244;28;20440;-62
2022/01/06 18:20:31;;;;;;;22.10;6.30;;;3.50;99.90;;;;;;5040925;28;20049;-63
2022/01/06 18:22:57;;;;;;;19.20;6.40;;;3.50;99.90;;;;;;5045949;28;20048;-63
2022/01/06 18:25:23;;;;;;;17.95;6.60;;;3.50;99.90;;;;;;5045112;28;20053;-62
2022/01/06 18:27:49;;;;;;;;;;;3.50;99.90;;;;;;5044313;28;20045;-63
2022/01/06 18:30:17;;;;;;;15.05;5.50;;;3.50;99.90;;;;;;5045820;28;19928;-63
2022/01/06 18:32:44;;;;;;;15.30;5.97;;;3.50;99.90;;;;;;5045156;28;20045;-63
2022/01/06 18:35:11;;;;;;;16.80;5.15;;;3.50;99.90;;;;;;5043886;28;20068;-62
2022/01/06 18:37:38;;;;;;;16.48;5.28;;;3.60;99.90;;;;;;5040322;28;20408;-63
2022/01/06 18:40:05;;;;;;;16.05;5.68;;;3.50;99.90;;;;;;5044620;28;20474;-62
2022/01/06 18:42:31;;;;;;;17.20;4.78;;;3.50;99.90;;;;;;5026088;28;20054;-63
2022/01/06 18:44:57;;;;;;;14.63;4.85;;;3.50;99.90;;;;;;5042994;28;20456;-63
2022/01/06 18:47:23;;;;;;;20.50;6.72;;;3.50;99.90;;;;;;5043695;28;20072;-63
2022/01/06 18:49:48;;;;;;;18.52;4.90;;;3.50;99.90;;;;;;5043769;28;20477;-63
2022/01/06 18:52:14;;;;;;;12.32;4.43;;;3.50;99.90;;;;;;5028161;28;20445;-63
2022/01/06 18:54:40;;;;;;;14.00;4.03;;;3.50;99.90;;;;;;5045219;28;20041;-62
2022/01/06 18:57:06;;;;;;;16.55;4.63;;;3.50;99.90;;;;;;5044504;28;20371;-62
2022/01/06 18:59:31;;;;;;;14.82;3.63;;;3.60;99.90;;;;;;5043653;28;20049;-62
2022/01/06 19:01:57;;;;;;;12.80;3.90;;;3.60;99.90;;;;;;5045359;28;20049;-63
2022/01/06 19:04:23;;;;;;;20.52;8.68;;;3.50;99.90;;;;;;5044025;28;20128;-62
2022/01/06 19:06:48;;;;;;;31.30;17.70;;;3.50;99.90;;;;;;5050920;28;20072;-63
2022/01/06 19:09:15;;;;;;;18.92;5.95;;;3.50;99.90;;;;;;5044738;28;20052;-63
2022/01/06 19:11:41;;;;;;;17.80;6.10;;;3.50;99.90;;;;;;5043687;28;20041;-63
2022/01/06 19:14:07;;;;;;;11.88;4.10;;;3.50;99.90;;;;;;5043900;28;20408;-64
2022/01/06 19:16:34;;;;;;;;;;;3.50;99.90;;;;;;5043453;28;20037;-63
2022/01/06 19:19:01;;;;;;;16.80;5.97;;;3.50;99.90;;;;;;5045087;28;19920;-63
2022/01/06 19:21:28;;;;;;;24.02;6.68;;;3.50;99.90;;;;;;5044237;28;20046;-64
2022/01/06 19:23:54;;;;;;;19.63;4.97;;;3.50;99.90;;;;;;5042683;28;20057;-63
2022/01/06 19:26:19;;;;;;;24.70;6.32;;;3.40;99.90;;;;;;5044777;28;20127;-62
2022/01/06 19:28:45;;;;;;;18.63;5.90;;;3.50;99.90;;;;;;5043646;28;20128;-63
2022/01/06 19:31:11;;;;;;;21.67;8.15;;;3.40;99.90;;;;;;5043298;28;20045;-61
2022/01/06 19:33:37;;;;;;;21.73;6.55;;;3.40;99.90;;;;;;5040699;28;20050;-63
2022/01/06 19:36:03;;;;;;;32.67;10.70;;;3.40;99.90;;;;;;5041034;28;20041;-62
2022/01/06 19:38:29;;;;;;;21.40;6.40;;;3.40;99.90;;;;;;5038767;28;20099;-63
2022/01/06 19:40:55;;;;;;;22.25;7.88;;;3.40;99.90;;;;;;5044577;28;20045;-62
2022/01/06 19:43:21;;;;;;;21.10;8.02;;;3.40;99.90;;;;;;5042921;28;20046;-62
2022/01/06 19:45:48;;;;;;;;;;;3.40;99.90;;;;;;5043842;28;20109;-64
2022/01/06 19:48:15;;;;;;;22.67;8.10;;;3.40;99.90;;;;;;5044515;28;19935;-62
2022/01/06 19:50:41;;;;;;;23.08;8.82;;;3.40;99.90;;;;;;5042833;28;20481;-62
2022/01/06 19:53:09;;;;;;;26.67;8.02;;;3.40;99.90;;;;;;5043302;28;20053;-63
2022/01/06 19:55:35;;;;;;;23.45;8.45;;;3.40;99.90;;;;;;5043348;28;20075;-63
2022/01/06 19:58:01;;;;;;;;;;;3.40;99.90;;;;;;5043140;28;20103;-63
2022/01/06 20:00:27;;;;;;;28.38;9.70;;;3.40;99.90;;;;;;5043370;28;19929;-64
2022/01/06 20:02:52;;;;;;;27.08;10.77;;;3.40;99.90;;;;;;5044328;28;20486;-63
2022/01/06 20:05:18;;;;;;;27.42;10.18;;;3.40;99.90;;;;;;5042303;28;20129;-62
2022/01/06 20:07:44;;;;;;;26.63;9.77;;;3.60;99.90;;;;;;5043550;28;20051;-62
2022/01/06 20:10:10;;;;;;;;;;;3.40;99.90;;;;;;5044288;28;20125;-62
2022/01/06 20:12:36;;;;;;;25.17;10.63;;;3.40;99.90;;;;;;5041858;28;19921;-62
2022/01/06 20:15:03;;;;;;;26.63;10.70;;;3.60;99.90;;;;;;5043726;28;20068;-62
2022/01/06 20:17:29;;;;;;;26.60;11.13;;;3.40;99.90;;;;;;5033556;28;20050;-62
2022/01/06 20:19:56;;;;;;;22.45;10.73;;;3.40;99.90;;;;;;5032497;28;20053;-62
2022/01/06 20:22:22;;;;;;;27.38;10.93;;;3.40;99.90;;;;;;5032688;28;20041;-62
2022/01/06 20:24:48;;;;;;;29.02;10.48;;;3.40;99.90;;;;;;5037457;28;20489;-60
2022/01/06 20:27:14;;;;;;;25.90;10.52;;;3.40;99.90;;;;;;5047670;28;20056;-61
2022/01/06 20:29:40;;;;;;;25.92;11.07;;;3.40;99.90;;;;;;5053451;28;20481;-61
2022/01/06 20:32:07;;;;;;;25.42;10.27;;;3.40;99.90;;;;;;5053933;28;20501;-61
2022/01/06 20:34:34;;;;;;;26.77;14.60;;;3.40;99.90;;;;;;5053722;28;20158;-62
2022/01/06 20:37:01;;;;;;;27.50;12.23;;;3.40;99.90;;;;;;5053372;28;20053;-62
2022/01/06 20:39:27;;;;;;;31.05;12.65;;;3.40;99.90;;;;;;5052308;28;20057;-63
2022/01/06 20:41:53;;;;;;;21.67;10.25;;;3.40;99.90;;;;;;5053876;28;20059;-62
2022/01/06 20:44:19;;;;;;;27.08;10.43;;;3.40;99.90;;;;;;5053315;28;20047;-62
2022/01/06 20:46:53;;;;;;;25.45;10.80;;;3.40;99.90;;;;;;5052237;28;20049;-62
2022/01/06 20:52:09;;;;;;;26.85;11.40;;;3.40;99.90;;;;;;5053916;28;20096;-63
2022/01/06 20:54:39;;;;;;;25.77;9.05;;;3.40;99.90;;;;;;5053342;28;20049;-63
2022/01/06 20:57:05;;;;;;;32.92;12.07;;;3.30;99.90;;;;;;5053093;28;20098;-62
2022/01/06 20:59:31;;;;;;;35.50;12.18;;;3.40;99.90;;;;;;5053227;28;20075;-62
2022/01/06 21:01:57;;;;;;;25.65;8.68;;;3.60;99.90;;;;;;5053259;28;20053;-63
2022/01/06 21:04:23;;;;;;;33.33;11.43;;;3.30;99.90;;;;;;5053073;28;20068;-62
2022/01/06 21:06:48;;;;;;;25.33;10.05;;;3.30;99.90;;;;;;5053399;28;20111;-61
2022/01/06 21:09:14;;;;;;;28.73;11.48;;;3.30;99.90;;;;;;5053436;28;20126;-62
2022/01/06 21:11:40;;;;;;;21.42;8.70;;;3.30;99.90;;;;;;5053079;28;20049;-61
2022/01/06 21:14:05;;;;;;;21.08;8.98;;;3.30;99.90;;;;;;5032961;28;20485;-62
2022/01/06 21:16:32;;;;;;;22.88;9.18;;;3.30;99.90;;;;;;5033172;28;20119;-62
2022/01/06 21:18:57;;;;;;;20.60;10.32;;;3.30;99.90;;;;;;5041354;28;20393;-62
2022/01/06 21:21:24;;;;;;;22.42;8.75;;;3.40;99.90;;;;;;5043743;28;20041;-61
2022/01/06 21:23:50;;;;;;;26.55;7.75;;;3.40;99.90;;;;;;5042404;28;20391;-61
2022/01/06 21:26:16;;;;;;;23.30;8.85;;;3.40;99.90;;;;;;5041661;28;20093;-62
2022/01/06 21:28:42;;;;;;;27.00;8.27;;;3.40;99.90;;;;;;5038568;28;20042;-61
2022/01/06 21:31:08;;;;;;;23.30;7.20;;;3.40;99.90;;;;;;5043694;28;20052;-62
2022/01/06 21:33:37;;;;;;;16.02;7.00;;;3.50;99.90;;;;;;5046825;28;20042;-61
2022/01/06 21:36:03;;;;;;;21.65;7.38;;;3.60;99.90;;;;;;5041478;28;20052;-62
2022/01/06 21:38:29;;;;;;;17.77;7.28;;;3.40;99.90;;;;;;5047386;28;20045;-62